Current Weather

Chicago/Rockford Intl

Rockford, Illinois (KRFD)

Report from: Saturday, July 13, 2024 7:54 PM CDT
Current time: Saturday, July 13, 2024 9:06 PM CDT

Nearby weather – Weather history – Daily summaries
Weather forecast

Temperature26.1°C (79.0°F)
Dew point20.6°C (69.1°F)
Winds 8 kts (4.1 m/s, 9.2 mph) South (170°)
Visibility10 mi. (16.1 km)
Clouds Few clouds 5,000 ft. (1,524 m)
Few clouds 21,000 ft. (6,401 m)
Ceiling: Broken clouds 25,000 ft. (7,620 m)
Altimeter30.02 in.Hg (1017 mB)
Relative humidity72 %
Density altitude1,515 ft. (462 m)
Sea-level pressure101.6 kPa (1016 mB, 30.01 in.Hg)
Remarks Automated weather observing station with precipitation discriminator
Flight conditions Visual Meteorological Conditions
Raw dataKRFD 140054Z 17008KT 10SM FEW050 FEW210 BKN250 26/21 A3002 RMK AO2 SLP161 T02610206
An error has occurred. This application may no longer respond until reloaded. Reload 🗙